Time;durP1;ratioP1;P1;durP2;ratioP2;P2;SDS_P1;SDS_P2;PMS_P1;PMS_P2;Temp;Humidity;BMP_temperature;BMP_pressure;BME280_temperature;BME280_humidity;BME280_pressure;Samples;Min_cycle;Max_cycle;Signal;HPM_P1;HPM_P2
2021/09/08 00:02:04;;;;;;;40.75;21.85;;;;;;;25.69;47.94;101484.66;5074886;28;20028;-71
2021/09/08 00:04:30;;;;;;;63.38;23.85;;;;;;;25.57;48.20;101483.06;5074603;28;20026;-71
2021/09/08 00:06:56;;;;;;;53.42;24.33;;;;;;;25.61;47.94;101481.06;5056558;28;20066;-71
2021/09/08 00:09:21;;;;;;;68.25;26.25;;;;;;;25.60;47.64;101476.66;5074464;28;20021;-72
2021/09/08 00:11:47;;;;;;;44.47;22.25;;;;;;;25.66;47.77;101474.28;5074461;28;20033;-71
2021/09/08 00:14:13;;;;;;;39.50;22.20;;;;;;;25.63;47.69;101464.69;5074417;28;20029;-71
2021/09/08 00:16:39;;;;;;;43.17;23.02;;;;;;;25.63;47.68;101469.50;5074461;28;20029;-72
2021/09/08 00:19:05;;;;;;;40.30;22.80;;;;;;;25.62;47.72;101459.50;5074329;28;20025;-71
2021/09/08 00:21:30;;;;;;;36.03;21.85;;;;;;;25.60;47.48;101465.47;5056467;28;20094;-72
2021/09/08 00:23:56;;;;;;;39.10;21.23;;;;;;;25.58;47.28;101461.47;5074486;28;20092;-73
2021/09/08 00:26:22;;;;;;;37.38;20.17;;;;;;;25.56;47.44;101458.28;5056263;28;20032;-71
2021/09/08 00:28:47;;;;;;;37.53;22.33;;;;;;;25.52;47.59;101452.69;5074091;28;20028;-71
2021/09/08 00:31:13;;;;;;;34.40;19.52;;;;;;;25.55;47.46;101448.31;5074112;28;20024;-71
2021/09/08 00:33:38;;;;;;;34.97;20.67;;;;;;;25.44;47.63;101439.88;5074022;28;20059;-72
2021/09/08 00:36:04;;;;;;;34.80;20.17;;;;;;;25.44;47.29;101451.88;5056227;28;20024;-72
2021/09/08 00:38:30;;;;;;;35.53;21.52;;;;;;;25.43;47.23;101444.69;5055850;28;20029;-72
2021/09/08 00:40:56;;;;;;;31.50;18.73;;;;;;;25.41;47.70;101444.28;5073856;28;20071;-71
2021/09/08 00:43:23;;;;;;;34.72;20.85;;;;;;;25.41;47.55;101446.28;5073792;28;20031;-72
2021/09/08 00:45:55;;;;;;;36.83;21.27;;;;;;;25.38;47.35;101439.47;5073753;28;20478;-72
2021/09/08 00:48:21;;;;;;;33.20;21.38;;;;;;;25.41;47.47;101447.09;5073722;28;20506;-72
2021/09/08 00:50:49;;;;;;;38.70;20.58;;;;;;;25.39;47.55;101440.25;5073682;28;20027;-73
2021/09/08 00:53:19;;;;;;;33.25;19.17;;;;;;;25.37;47.24;101440.66;5073539;28;20082;-75
2021/09/08 00:55:46;;;;;;;41.67;20.38;;;;;;;25.32;47.48;101432.69;5055871;28;20526;-72
2021/09/08 00:58:12;;;;;;;34.97;23.50;;;;;;;25.30;47.56;101431.47;5055963;28;20020;-71
2021/09/08 01:00:38;;;;;;;35.28;21.50;;;;;;;25.31;47.09;101428.25;5072854;28;20021;-72
2021/09/08 01:03:05;;;;;;;34.38;21.17;;;;;;;25.26;47.45;101423.09;5073712;28;20021;-71
2021/09/08 01:05:31;;;;;;;32.38;21.25;;;;;;;25.29;47.25;101427.06;5073375;28;20024;-71
2021/09/08 01:07:59;;;;;;;28.90;19.65;;;;;;;25.30;47.17;101421.06;5073599;28;20025;-71
2021/09/08 01:10:28;;;;;;;33.72;19.33;;;;;;;25.23;47.34;101423.06;5073348;28;20025;-72
2021/09/08 01:12:55;;;;;;;33.15;19.17;;;;;;;25.20;46.92;101405.09;5073116;28;20028;-71
2021/09/08 01:15:20;;;;;;;33.17;21.60;;;;;;;25.22;47.23;101413.88;5073465;28;20521;-72
2021/09/08 01:17:46;;;;;;;31.42;19.25;;;;;;;25.20;46.84;101409.88;5073406;28;20021;-72
2021/09/08 01:20:14;;;;;;;32.10;18.50;;;;;;;25.10;47.03;101405.88;5055166;28;20021;-71
2021/09/08 01:22:53;;;;;;;34.45;21.92;;;;;;;25.08;47.00;101408.25;5073299;28;20060;-71
2021/09/08 01:25:25;;;;;;;27.80;20.42;;;;;;;25.12;47.04;101401.47;5073044;28;20173;-71
2021/09/08 01:27:53;;;;;;;29.02;19.95;;;;;;;25.18;47.19;101401.91;5073014;28;20059;-72
2021/09/08 01:30:21;;;;;;;28.63;19.63;;;;;;;25.16;46.91;101396.72;5073030;28;20620;-72
2021/09/08 01:32:48;;;;;;;27.80;20.65;;;;;;;25.15;46.68;101399.88;5072782;28;20486;-72
2021/09/08 01:35:15;;;;;;;38.22;22.17;;;;;;;25.20;47.05;101391.09;5072857;28;20021;-71
2021/09/08 01:37:41;;;;;;;31.27;20.45;;;;;;;25.21;46.83;101394.69;5072505;28;20086;-75
2021/09/08 01:40:08;;;;;;;25.73;18.65;;;;;;;25.20;46.90;101393.09;5072877;28;20064;-71
2021/09/08 01:42:34;;;;;;;31.42;18.17;;;;;;;25.15;47.03;101389.50;5054328;28;20119;-71
2021/09/08 01:44:59;;;;;;;32.15;18.85;;;;;;;25.16;46.90;101382.72;5072762;28;20151;-71
2021/09/08 01:47:25;;;;;;;29.17;18.35;;;;;;;25.15;46.61;101383.09;5054569;28;20028;-72
2021/09/08 01:49:51;;;;;;;28.17;18.20;;;;;;;25.11;46.75;101376.72;5071904;28;20466;-71
2021/09/08 01:52:17;;;;;;;33.08;22.85;;;;;;;25.03;47.13;101383.47;5072602;28;20030;-75
2021/09/08 01:54:43;;;;;;;36.38;21.15;;;;;;;25.01;47.26;101366.28;5072677;28;20024;-71
2021/09/08 01:57:08;;;;;;;25.25;15.55;;;;;;;24.96;46.80;101364.69;5072832;28;20021;-72
2021/09/08 01:59:34;;;;;;;27.70;17.63;;;;;;;24.92;46.67;101367.44;5088102;28;20031;-71
2021/09/08 02:02:00;;;;;;;25.45;16.90;;;;;;;24.91;46.77;101351.88;5072489;28;20028;-71
2021/09/08 02:04:26;;;;;;;31.88;19.60;;;;;;;24.92;46.69;101350.69;5088088;28;20486;-72
2021/09/08 02:06:52;;;;;;;27.30;20.70;;;;;;;24.91;46.83;101349.09;5088031;28;20099;-75
2021/09/08 02:09:19;;;;;;;27.30;16.52;;;;;;;24.83;47.11;101341.09;5072508;28;20055;-72
2021/09/08 02:11:46;;;;;;;23.20;16.73;;;;;;;24.82;46.62;101340.28;5072162;28;20028;-72
2021/09/08 02:14:12;;;;;;;29.98;16.45;;;;;;;24.81;46.93;101335.91;5054411;28;20029;-72
2021/09/08 02:16:39;;;;;;;28.75;19.35;;;;;;;24.82;46.88;101329.09;5072383;28;20035;-72
2021/09/08 02:19:04;;;;;;;24.52;16.95;;;;;;;24.85;47.02;101328.31;5072587;28;20025;-72
2021/09/08 02:21:31;;;;;;;28.77;18.58;;;;;;;24.85;46.64;101324.72;5072549;28;20090;-71
2021/09/08 02:23:56;;;;;;;34.75;21.52;;;;;;;24.87;47.00;101319.56;5072311;28;20103;-71
2021/09/08 02:26:23;;;;;;;34.22;21.65;;;;;;;24.82;46.62;101317.94;5072303;28;20052;-71
2021/09/08 02:28:49;;;;;;;31.33;20.08;;;;;;;24.87;46.76;101300.78;5072478;28;20505;-71
2021/09/08 02:31:15;;;;;;;36.45;23.15;;;;;;;24.90;46.70;101304.78;5072536;28;20024;-71
2021/09/08 02:33:41;;;;;;;38.25;24.83;;;;;;;24.87;46.71;101295.19;5072345;28;20123;-71
2021/09/08 02:36:08;;;;;;;29.25;22.23;;;;;;;24.84;46.35;101298.75;5072318;28;20020;-71
2021/09/08 02:38:34;;;;;;;25.40;18.80;;;;;;;24.84;46.38;101293.19;5087454;28;20028;-71
2021/09/08 02:41:06;;;;;;;27.70;20.30;;;;;;;24.89;46.58;101290.00;5072467;28;20059;-71
2021/09/08 02:43:33;;;;;;;31.20;17.95;;;;;;;24.87;46.76;101289.59;5072108;28;20078;-75
2021/09/08 02:46:02;;;;;;;27.88;19.52;;;;;;;24.83;46.69;101288.00;5072122;28;20048;-76
2021/09/08 02:48:28;;;;;;;30.00;20.02;;;;;;;24.77;46.71;101284.78;5072176;28;20024;-71
2021/09/08 02:50:54;;;;;;;31.23;22.27;;;;;;;24.72;47.03;101281.59;5072076;28;20025;-71
2021/09/08 02:53:19;;;;;;;42.33;21.95;;;;;;;24.61;47.07;101275.97;5087600;28;20119;-72
2021/09/08 02:55:45;;;;;;;29.15;21.60;;;;;;;24.62;47.10;101280.38;5071971;28;20111;-73
2021/09/08 02:58:11;;;;;;;38.08;25.88;;;;;;;24.54;47.66;101279.53;5072003;28;20437;-71
2021/09/08 03:00:37;;;;;;;27.45;18.88;;;;;;;24.58;47.58;101282.38;5071894;28;20016;-72
2021/09/08 03:03:03;;;;;;;29.42;18.10;;;;;;;24.59;47.50;101278.38;5071946;28;20025;-74
2021/09/08 03:05:28;;;;;;;22.33;16.65;;;;;;;24.58;47.30;101274.78;5087744;28;20024;-71
2021/09/08 03:07:54;;;;;;;22.98;18.33;;;;;;;24.60;47.22;101274.38;5072118;28;20028;-72
2021/09/08 03:10:20;;;;;;;29.95;20.15;;;;;;;24.58;47.32;101277.56;5071985;28;20020;-71
2021/09/08 03:12:45;;;;;;;27.35;19.30;;;;;;;24.65;47.24;101276.00;5071793;28;20483;-74
2021/09/08 03:15:12;;;;;;;33.90;25.08;;;;;;;24.71;47.09;101272.41;5071809;28;20025;-72
2021/09/08 03:17:37;;;;;;;40.35;29.15;;;;;;;24.74;46.82;101268.03;5071846;28;20029;-73
2021/09/08 03:20:04;;;;;;;47.83;32.15;;;;;;;24.80;47.13;101266.44;5071857;28;20097;-71
2021/09/08 03:22:29;;;;;;;58.50;35.95;;;;;;;24.87;46.85;101264.44;5071808;28;20029;-72
2021/09/08 03:24:55;;;;;;;55.53;35.08;;;;;;;24.99;46.75;101262.44;5056428;28;20021;-71
2021/09/08 03:27:21;;;;;;;54.20;35.40;;;;;;;25.07;47.12;101264.06;5075312;28;20024;-74
2021/09/08 03:29:46;;;;;;;65.22;34.25;;;;;;;25.05;47.32;101260.88;5090896;28;20031;-74
2021/09/08 03:32:12;;;;;;;44.42;30.85;;;;;;;25.04;47.38;101259.28;5075149;28;20020;-72
2021/09/08 03:34:38;;;;;;;51.40;34.80;;;;;;;25.15;47.04;101251.69;5075132;28;20036;-71
2021/09/08 03:37:03;;;;;;;60.38;40.30;;;;;;;25.13;47.69;101245.69;5075142;28;20593;-71
2021/09/08 03:39:29;;;;;;;59.60;36.75;;;;;;;25.18;47.51;101248.09;5074950;28;20515;-72
2021/09/08 03:41:55;;;;;;;59.03;37.67;;;;;;;25.22;47.71;101242.50;5075267;28;20033;-72
2021/09/08 03:44:20;;;;;;;57.92;38.47;;;;;;;25.27;47.76;101234.50;5090560;28;20484;-72
2021/09/08 03:46:46;;;;;;;61.67;37.75;;;;;;;25.36;47.84;101234.09;5074982;28;20429;-71
2021/09/08 03:49:11;;;;;;;59.63;39.03;;;;;;;25.41;47.84;101233.69;5074861;28;20107;-71
2021/09/08 03:51:37;;;;;;;62.50;40.10;;;;;;;25.49;47.95;101234.47;5074775;28;20063;-71
2021/09/08 03:54:03;;;;;;;65.68;40.90;;;;;;;25.49;48.27;101229.66;5074789;28;20082;-72
2021/09/08 03:56:28;;;;;;;67.03;39.75;;;;;;;25.49;48.59;101228.88;5075076;28;20024;-71
2021/09/08 03:58:54;;;;;;;61.05;38.50;;;;;;;25.51;48.49;101229.25;5074964;28;20028;-71
2021/09/08 04:01:19;;;;;;;64.38;41.35;;;;;;;25.51;48.67;101226.47;5074719;28;20028;-72
2021/09/08 04:03:49;;;;;;;63.00;40.63;;;;;;;25.48;49.13;101227.28;5074648;28;20035;-75
2021/09/08 04:06:15;;;;;;;59.92;40.45;;;;;;;25.56;48.92;101217.66;5074614;28;20036;-71
2021/09/08 04:08:41;;;;;;;64.07;39.08;;;;;;;25.53;48.97;101210.84;5074577;28;20094;-72
2021/09/08 04:11:07;;;;;;;70.40;42.75;;;;;;;25.53;48.79;101201.66;5074804;28;20498;-71
2021/09/08 04:13:35;;;;;;;66.32;40.70;;;;;;;25.60;49.07;101213.63;5074364;28;20029;-71
2021/09/08 04:16:01;;;;;;;75.93;41.30;;;;;;;25.60;48.99;101208.03;5090249;28;20036;-74
2021/09/08 04:18:26;;;;;;;68.88;42.25;;;;;;;25.51;49.23;101210.47;5089475;28;20109;-72
2021/09/08 04:20:52;;;;;;;64.13;42.03;;;;;;;25.45;49.54;101212.88;5073941;28;20547;-72
2021/09/08 04:23:17;;;;;;;65.72;40.05;;;;;;;25.44;49.35;101200.09;5073833;28;20020;-72
2021/09/08 04:25:43;;;;;;;64.10;42.35;;;;;;;25.54;48.79;101194.88;5055911;28;20025;-75
2021/09/08 04:28:09;;;;;;;72.60;42.17;;;;;;;25.50;49.05;101192.09;5073777;28;20027;-74
2021/09/08 04:30:34;;;;;;;73.03;42.22;;;;;;;25.52;49.08;101186.09;5073694;28;20096;-73
2021/09/08 04:33:00;;;;;;;73.35;45.05;;;;;;;25.44;49.66;101193.69;5073732;28;20513;-75
2021/09/08 04:35:25;;;;;;;66.28;42.75;;;;;;;25.43;49.44;101192.13;5073545;28;20024;-73
2021/09/08 04:37:51;;;;;;;82.35;45.03;;;;;;;25.45;49.77;101179.31;5073693;28;20028;-72
2021/09/08 04:40:16;;;;;;;69.93;43.80;;;;;;;25.35;50.05;101196.94;5073435;28;20105;-74
2021/09/08 04:42:42;;;;;;;73.13;45.03;;;;;;;25.39;49.63;101186.53;5073614;28;20394;-72
2021/09/08 04:45:09;;;;;;;75.93;47.10;;;;;;;25.40;49.58;101192.94;5055601;28;20025;-72
2021/09/08 04:47:35;;;;;;;78.90;47.05;;;;;;;25.37;50.01;101190.91;5073563;28;20036;-74
2021/09/08 04:50:00;;;;;;;84.85;51.47;;;;;;;25.43;49.88;101183.72;5055497;28;20032;-73
2021/09/08 04:52:26;;;;;;;81.03;54.03;;;;;;;25.42;50.16;101190.53;5073252;28;20158;-72
2021/09/08 04:54:51;;;;;;;93.78;51.55;;;;;;;25.42;50.06;101187.72;5073356;28;20043;-73
2021/09/08 04:57:17;;;;;;;79.32;47.90;;;;;;;25.35;50.18;101180.16;5070557;28;20040;-75
2021/09/08 04:59:43;;;;;;;85.82;52.70;;;;;;;25.39;50.01;101180.94;5055240;28;20067;-74
2021/09/08 05:02:09;;;;;;;77.93;50.90;;;;;;;25.40;49.94;101179.75;5073058;28;20024;-72
2021/09/08 05:04:35;;;;;;;76.10;46.10;;;;;;;25.38;50.39;101175.72;5073108;28;20089;-72
2021/09/08 05:07:01;;;;;;;78.40;50.17;;;;;;;25.38;50.25;101182.13;5073014;28;20395;-72
2021/09/08 05:09:26;;;;;;;76.97;49.60;;;;;;;25.41;50.29;101177.75;5055096;28;20036;-72
2021/09/08 05:11:52;;;;;;;79.97;47.83;;;;;;;25.52;50.17;101169.31;5072874;28;20071;-72
2021/09/08 05:14:18;;;;;;;73.80;45.63;;;;;;;25.55;50.06;101172.09;5070169;28;20024;-72
2021/09/08 05:16:44;;;;;;;78.63;47.03;;;;;;;25.51;50.31;101176.09;5072810;28;20032;-71
2021/09/08 05:19:10;;;;;;;77.88;45.53;;;;;;;25.44;50.74;101172.13;5072740;28;20073;-71
2021/09/08 05:21:35;;;;;;;86.43;48.65;;;;;;;25.54;50.54;101181.66;5072777;28;20115;-72
2021/09/08 05:24:01;;;;;;;84.57;46.08;;;;;;;25.57;50.52;101171.69;5072746;28;20040;-72
2021/09/08 05:26:27;;;;;;;80.07;49.75;;;;;;;25.56;50.59;101159.69;5072710;28;20403;-74
2021/09/08 05:28:52;;;;;;;94.93;52.50;;;;;;;25.58;50.59;101165.69;5055043;28;20031;-74
2021/09/08 05:31:18;;;;;;;88.65;51.42;;;;;;;25.57;50.77;101169.69;5072795;28;20387;-73
2021/09/08 05:33:43;;;;;;;84.35;48.95;;;;;;;25.56;50.59;101158.91;5072558;28;20445;-75
2021/09/08 05:36:09;;;;;;;82.78;50.72;;;;;;;25.58;50.66;101153.69;5072490;28;20027;-72
2021/09/08 05:38:35;;;;;;;89.45;51.55;;;;;;;25.62;50.78;101148.91;5072291;28;20470;-75
2021/09/08 05:41:03;;;;;;;83.53;50.35;;;;;;;25.63;50.60;101147.69;5072473;28;20020;-72
2021/09/08 05:43:28;;;;;;;89.63;49.63;;;;;;;25.56;50.96;101150.50;5072365;28;20016;-75
2021/09/08 05:45:54;;;;;;;86.05;52.13;;;;;;;25.58;50.79;101145.31;5053830;28;20536;-74
2021/09/08 05:48:19;;;;;;;99.07;54.85;;;;;;;25.57;51.21;101140.91;5071803;28;20514;-74
2021/09/08 05:50:45;;;;;;;93.72;59.70;;;;;;;25.51;51.46;101142.53;5054376;28;20510;-73
2021/09/08 05:53:10;;;;;;;94.45;55.42;;;;;;;25.52;51.14;101144.13;5071790;28;20036;-72
2021/09/08 05:55:36;;;;;;;104.00;58.80;;;;;;;25.56;51.29;101148.50;5072100;28;20028;-72
2021/09/08 05:58:02;;;;;;;104.63;56.53;;;;;;;25.63;51.00;101147.69;5072359;28;20066;-72
2021/09/08 06:00:27;;;;;;;94.03;54.30;;;;;;;25.73;50.83;101135.66;5054297;28;20433;-72
2021/09/08 06:02:53;;;;;;;100.78;55.40;;;;;;;25.68;50.89;101127.66;5054219;28;20021;-72
2021/09/08 06:05:19;;;;;;;98.55;54.28;;;;;;;25.64;51.18;101129.69;5072265;28;20023;-71
2021/09/08 06:07:44;;;;;;;95.38;58.13;;;;;;;25.71;50.80;101122.09;5054348;28;20040;-71
2021/09/08 06:10:10;;;;;;;104.68;58.03;;;;;;;25.74;50.87;101128.88;5054289;28;20028;-71
2021/09/08 06:12:35;;;;;;;92.22;54.10;;;;;;;25.69;50.98;101115.25;5072138;28;20029;-72
2021/09/08 06:15:01;;;;;;;99.50;57.42;;;;;;;25.68;51.02;101114.47;5072168;28;20421;-72
2021/09/08 06:17:27;;;;;;;109.93;60.72;;;;;;;25.72;50.84;101108.91;5054112;28;20024;-72
2021/09/08 06:19:52;;;;;;;96.13;56.20;;;;;;;25.64;51.23;101104.50;5072458;28;20431;-71
2021/09/08 06:22:18;;;;;;;95.70;53.13;;;;;;;25.76;50.97;101103.25;5069254;28;20024;-72
2021/09/08 06:24:44;;;;;;;100.97;55.05;;;;;;;25.76;51.01;101092.06;5072157;28;20032;-71
2021/09/08 06:27:09;;;;;;;89.20;52.63;;;;;;;25.74;51.01;101103.69;5072009;28;20399;-71
2021/09/08 06:29:35;;;;;;;90.15;52.65;;;;;;;25.79;50.96;101106.06;5071951;28;20122;-71
2021/09/08 06:32:00;;;;;;;98.70;54.95;;;;;;;25.85;50.72;101103.63;5071833;28;20596;-72
2021/09/08 06:34:26;;;;;;;86.57;53.45;;;;;;;25.86;51.14;101108.03;5071315;28;20425;-71
2021/09/08 06:36:53;;;;;;;94.97;57.10;;;;;;;25.84;51.08;101104.81;5071549;28;20099;-71
2021/09/08 06:39:20;;;;;;;88.35;57.40;;;;;;;25.83;51.07;101095.63;5071247;28;20051;-71
2021/09/08 06:41:48;;;;;;;97.57;61.15;;;;;;;25.82;51.18;101094.03;5071629;28;20025;-71
2021/09/08 06:44:14;;;;;;;86.15;54.70;;;;;;;25.86;51.32;101089.22;5072218;28;20125;-71
2021/09/08 06:46:39;;;;;;;108.07;62.33;;;;;;;25.86;51.55;101092.03;5072171;28;20054;-71
2021/09/08 06:49:05;;;;;;;94.25;56.90;;;;;;;25.81;51.79;101084.03;5072260;28;20486;-73
2021/09/08 06:51:30;;;;;;;96.80;58.08;;;;;;;25.92;51.26;101090.38;5072230;28;20414;-73
2021/09/08 06:53:56;;;;;;;86.35;54.80;;;;;;;25.89;51.47;101080.00;5072294;28;20102;-72
2021/09/08 06:56:22;;;;;;;84.07;51.63;;;;;;;25.84;51.79;101080.41;5072085;28;20056;-72
2021/09/08 06:58:47;;;;;;;89.68;50.85;;;;;;;25.80;51.78;101090.06;5072883;28;20449;-72
2021/09/08 07:01:13;;;;;;;80.00;49.70;;;;;;;25.82;52.23;101090.44;5075808;28;20025;-73
2021/09/08 07:03:38;;;;;;;85.97;50.50;;;;;;;25.92;51.93;101090.38;5075781;28;20634;-73
2021/09/08 07:06:04;;;;;;;85.53;50.80;;;;;;;26.02;51.52;101085.91;5076071;28;20025;-77
2021/09/08 07:08:30;;;;;;;81.20;49.10;;;;;;;26.03;52.00;101089.50;5075668;28;20032;-72
2021/09/08 07:10:55;;;;;;;77.53;49.08;;;;;;;26.13;51.82;101100.63;5057755;28;20097;-72
2021/09/08 07:13:21;;;;;;;75.60;47.63;;;;;;;26.24;51.74;101094.97;5075760;28;20033;-72
2021/09/08 07:15:47;;;;;;;79.80;48.53;;;;;;;26.24;51.91;101086.56;5075813;28;20031;-73
2021/09/08 07:18:12;;;;;;;75.68;47.08;;;;;;;26.27;52.02;101091.31;5056622;28;20051;-73
2021/09/08 07:20:40;;;;;;;71.25;44.88;;;;;;;26.35;52.03;101097.66;5071846;28;20024;-72
2021/09/08 07:23:09;;;;;;;74.35;46.92;;;;;;;26.44;52.04;101109.22;5075405;28;20013;-72
2021/09/08 07:25:37;;;;;;;74.75;45.67;;;;;;;26.57;51.70;101098.31;5057166;28;20488;-72
2021/09/08 07:28:07;;;;;;;66.80;44.75;;;;;;;26.65;51.44;101094.22;5075038;28;20505;-73
2021/09/08 07:30:33;;;;;;;66.38;45.55;;;;;;;26.67;51.18;101089.00;5066054;28;20022;-73
2021/09/08 07:32:59;;;;;;;73.65;45.33;;;;;;;26.75;50.96;101082.94;5058922;28;20024;-72
2021/09/08 07:35:25;;;;;;;62.80;41.70;;;;;;;26.73;50.90;101082.53;5058622;28;20669;-73
2021/09/08 07:37:50;;;;;;;65.93;43.92;;;;;;;26.75;50.77;101080.13;5058100;28;20036;-73
2021/09/08 07:40:17;;;;;;;62.35;40.67;;;;;;;26.79;50.77;101082.88;5059679;28;20131;-73
2021/09/08 07:42:43;;;;;;;63.97;41.25;;;;;;;26.85;50.44;101067.22;5057925;28;20075;-73
2021/09/08 07:45:09;;;;;;;67.30;42.88;;;;;;;26.82;50.72;101077.22;5056822;28;20032;-73
2021/09/08 07:47:34;;;;;;;65.32;41.88;;;;;;;26.89;50.58;101072.75;5057858;28;20111;-73
2021/09/08 07:50:00;;;;;;;59.33;42.03;;;;;;;26.90;50.33;101066.72;5057070;28;20107;-73
2021/09/08 07:52:26;;;;;;;64.82;43.95;;;;;;;26.97;50.23;101068.66;5056938;28;20054;-73
2021/09/08 07:54:51;;;;;;;57.58;42.55;;;;;;;26.91;50.27;101059.16;5057264;28;20109;-73
2021/09/08 07:57:19;;;;;;;58.60;43.72;;;;;;;26.95;50.27;101052.28;5043071;28;20111;-72
2021/09/08 07:59:51;;;;;;;54.28;40.90;;;;;;;26.89;50.20;101053.94;5072356;28;20051;-73
2021/09/08 08:02:18;;;;;;;52.42;40.90;;;;;;;26.78;50.35;101047.66;5074540;28;20035;-72
2021/09/08 08:04:51;;;;;;;62.58;47.60;;;;;;;26.83;50.17;101052.81;5074412;28;20028;-73
2021/09/08 08:07:17;;;;;;;55.03;43.30;;;;;;;26.88;50.04;101059.97;5073799;28;20051;-73
2021/09/08 08:09:43;;;;;;;57.33;43.33;;;;;;;26.96;49.83;101065.06;5073789;28;20518;-73
2021/09/08 08:12:12;;;;;;;50.50;43.28;;;;;;;26.99;49.72;101064.25;5074396;28;20031;-73
2021/09/08 08:14:37;;;;;;;51.22;38.40;;;;;;;27.05;49.44;101071.03;5074560;28;20065;-72
2021/09/08 08:17:04;;;;;;;55.10;41.38;;;;;;;26.96;49.58;101073.47;5074495;28;20100;-72
2021/09/08 08:19:30;;;;;;;46.78;35.90;;;;;;;26.96;49.66;101067.09;5073656;28;20544;-72
2021/09/08 08:21:56;;;;;;;50.22;37.25;;;;;;;27.01;49.53;101067.44;5066858;28;20238;-73
2021/09/08 08:24:21;;;;;;;47.20;38.35;;;;;;;27.00;49.56;101063.03;5072877;28;20514;-72
2021/09/08 08:26:47;;;;;;;48.15;38.30;;;;;;;26.95;49.62;101069.09;5073713;28;20174;-73
2021/09/08 08:29:12;;;;;;;48.85;38.25;;;;;;;26.98;49.50;101071.09;5073808;28;20070;-73
2021/09/08 08:31:38;;;;;;;54.80;38.75;;;;;;;27.22;48.83;101074.03;5073815;28;20580;-73
2021/09/08 08:34:04;;;;;;;45.00;39.58;;;;;;;27.29;48.49;101069.13;5073853;28;20025;-73
2021/09/08 08:36:30;;;;;;;51.05;36.28;;;;;;;27.23;49.04;101065.19;5073863;28;20023;-73
2021/09/08 08:38:56;;;;;;;56.58;37.80;;;;;;;27.37;48.65;101064.22;5073790;28;20398;-73
2021/09/08 08:41:23;;;;;;;53.78;41.10;;;;;;;27.42;48.47;101055.31;5074017;28;20025;-72
2021/09/08 08:43:49;;;;;;;47.25;36.95;;;;;;;27.27;48.61;101056.72;5073833;28;20117;-72
2021/09/08 08:46:15;;;;;;;45.22;35.30;;;;;;;27.24;48.76;101058.38;5069204;28;20498;-72
2021/09/08 08:48:41;;;;;;;51.47;36.88;;;;;;;27.19;48.54;101058.03;5073379;28;20039;-71
2021/09/08 08:51:06;;;;;;;48.10;34.85;;;;;;;27.26;48.16;101057.94;5073609;28;20036;-72
2021/09/08 08:53:32;;;;;;;46.10;32.75;;;;;;;27.19;48.18;101064.44;5071689;28;20036;-71
2021/09/08 08:55:57;;;;;;;46.42;31.60;;;;;;;27.25;47.98;101076.00;5073278;28;20039;-72
2021/09/08 08:58:23;;;;;;;47.30;34.10;;;;;;;27.22;48.28;101074.03;5073424;28;20037;-71
2021/09/08 09:01:16;;;;;;;43.42;31.42;;;;;;;27.33;47.98;101071.88;5073295;28;20020;-73
2021/09/08 09:03:41;;;;;;;42.28;30.05;;;;;;;27.26;47.90;101069.16;5055448;28;20036;-72
2021/09/08 09:06:08;;;;;;;41.00;31.02;;;;;;;27.20;48.25;101070.84;5055262;28;20062;-72
2021/09/08 09:08:34;;;;;;;38.65;28.98;;;;;;;27.29;47.84;101073.97;5073262;28;20463;-72
2021/09/08 09:11:02;;;;;;;51.47;33.03;;;;;;;27.34;47.93;101079.09;5072821;28;20040;-72
2021/09/08 09:13:32;;;;;;;43.10;37.25;;;;;;;27.28;48.32;101075.97;5072993;28;20064;-72
2021/09/08 09:16:09;;;;;;;45.38;36.97;;;;;;;27.38;48.14;101077.84;5072804;28;20040;-72
2021/09/08 09:18:38;;;;;;;42.05;31.30;;;;;;;27.42;48.18;101083.38;5073080;28;20020;-72
2021/09/08 09:21:11;;;;;;;43.20;30.00;;;;;;;27.41;48.03;101081.78;5072497;28;20028;-72
2021/09/08 09:23:41;;;;;;;41.63;31.08;;;;;;;27.37;48.19;101075.44;5071421;28;20069;-72
2021/09/08 09:26:07;;;;;;;40.63;30.73;;;;;;;27.48;47.95;101078.91;5072959;28;20107;-72
2021/09/08 09:28:40;;;;;;;39.80;30.33;;;;;;;27.54;47.78;101068.00;5072949;28;20120;-71
2021/09/08 09:31:19;;;;;;;39.35;29.10;;;;;;;27.58;47.74;101068.75;5055071;28;20102;-72
2021/09/08 09:33:47;;;;;;;46.88;33.28;;;;;;;27.59;47.79;101071.16;5072324;28;20040;-72
2021/09/08 09:36:18;;;;;;;38.70;32.83;;;;;;;27.74;47.22;101059.75;5072508;28;20364;-72
2021/09/08 09:38:44;;;;;;;39.40;29.38;;;;;;;27.72;47.29;101062.16;5072588;28;20056;-72
2021/09/08 09:41:10;;;;;;;37.83;29.90;;;;;;;27.72;47.17;101056.56;5072812;28;20051;-72
2021/09/08 09:43:40;;;;;;;37.80;29.50;;;;;;;27.69;47.21;101052.59;5072147;28;20107;-73
2021/09/08 09:46:07;;;;;;;39.08;30.23;;;;;;;27.67;47.47;101054.22;5054424;28;20029;-72
2021/09/08 09:48:33;;;;;;;40.22;29.95;;;;;;;27.81;47.04;101056.81;5072065;28;20047;-72
2021/09/08 09:51:09;;;;;;;35.00;27.92;;;;;;;27.73;46.95;101061.75;5072243;28;20462;-72
2021/09/08 09:53:35;;;;;;;32.40;25.95;;;;;;;27.80;46.97;101064.44;5070668;28;20505;-72
2021/09/08 09:56:00;;;;;;;45.90;28.38;;;;;;;27.74;47.06;101059.75;5054467;28;20131;-72
2021/09/08 09:58:26;;;;;;;33.35;25.95;;;;;;;27.81;46.79;101056.81;5071903;28;20039;-72
2021/09/08 10:00:52;;;;;;;32.70;24.95;;;;;;;27.81;46.81;101054.00;5072469;28;20053;-72
2021/09/08 10:03:22;;;;;;;31.85;23.58;;;;;;;27.89;46.64;101053.50;5072459;28;20016;-72
2021/09/08 10:05:48;;;;;;;;;;;;;;;27.86;46.43;101059.16;5072845;28;20028;-72
2021/09/08 10:08:19;;;;;;;27.13;23.35;;;;;;;28.03;46.28;101044.03;5054371;28;20282;-71
2021/09/08 10:10:48;;;;;;;31.17;23.58;;;;;;;28.06;46.32;101054.44;5072375;28;20025;-71
2021/09/08 10:13:21;;;;;;;33.78;23.48;;;;;;;28.00;46.34;101047.72;5072166;28;20028;-72
2021/09/08 10:15:50;;;;;;;28.77;23.33;;;;;;;28.13;46.24;101043.09;5071811;28;20044;-72
2021/09/08 10:18:22;;;;;;;30.25;22.02;;;;;;;28.16;45.79;101045.03;5072298;28;20027;-72
2021/09/08 10:21:02;;;;;;;30.33;23.38;;;;;;;28.06;46.20;101036.78;5072343;28;20028;-72
2021/09/08 10:23:31;;;;;;;28.02;22.00;;;;;;;28.05;46.12;101041.63;5070719;28;20064;-72
2021/09/08 10:25:57;;;;;;;32.95;21.77;;;;;;;28.05;46.03;101052.06;5072208;28;20028;-72
2021/09/08 10:28:26;;;;;;;28.60;20.83;;;;;;;28.11;45.84;101044.72;5072196;28;20020;-73
2021/09/08 10:30:52;;;;;;;24.73;20.95;;;;;;;28.00;45.90;101038.50;5072123;28;20025;-72
2021/09/08 10:33:18;;;;;;;35.17;20.98;;;;;;;28.03;45.80;101034.81;5067705;28;20035;-73
2021/09/08 10:35:44;;;;;;;27.88;20.92;;;;;;;28.11;45.48;101036.28;5059843;28;20036;-72
2021/09/08 10:38:13;;;;;;;25.65;18.88;;;;;;;28.14;45.61;101039.06;5059627;28;20082;-73
2021/09/08 10:40:41;;;;;;;28.90;21.13;;;;;;;28.23;45.69;101041.31;5059475;28;20048;-72
2021/09/08 10:43:06;;;;;;;26.70;21.08;;;;;;;28.24;45.61;101030.88;5063515;28;20292;-72
2021/09/08 10:45:32;;;;;;;24.52;19.42;;;;;;;28.20;45.78;101037.34;5075677;28;20052;-72
2021/09/08 10:48:00;;;;;;;30.38;22.65;;;;;;;28.18;45.46;101033.34;5076017;28;20031;-72
2021/09/08 10:50:34;;;;;;;29.88;23.20;;;;;;;28.17;45.71;101020.53;5075902;28;20025;-72
2021/09/08 10:53:04;;;;;;;26.23;21.40;;;;;;;28.29;45.44;101005.88;5076032;28;20024;-72
2021/09/08 10:55:43;;;;;;;24.67;21.13;;;;;;;28.38;45.47;101003.34;5074421;28;20483;-72
2021/09/08 10:58:10;;;;;;;30.80;23.13;;;;;;;28.45;45.70;101000.41;5076010;28;20035;-72
2021/09/08 11:00:38;;;;;;;20.90;18.80;;;;;;;28.66;45.76;100996.41;5075820;28;20048;-72
2021/09/08 11:03:08;;;;;;;25.02;18.88;;;;;;;28.84;45.53;100990.41;5075676;28;20016;-72
2021/09/08 11:06:08;;;;;;;31.80;20.05;;;;;;;28.90;45.09;100983.09;5075720;28;20566;-72
2021/09/08 11:08:34;;;;;;;22.80;20.15;;;;;;;28.92;44.52;100980.63;4974446;28;20510;-72